Time;durP1;ratioP1;P1;durP2;ratioP2;P2;SDS_P1;SDS_P2;PMS_P1;PMS_P2;Temp;Humidity;BMP_temperature;BMP_pressure;BME280_temperature;BME280_humidity;BME280_pressure;Samples;Min_cycle;Max_cycle;Signal;HPM_P1;HPM_P2
2021/06/25 00:01:18;;;;;;;4.35;1.80;;;22.50;53.80;;;;;;5036565;28;20075;-69
2021/06/25 00:03:44;;;;;;;3.50;1.80;;;22.50;53.80;;;;;;5036299;28;20029;-69
2021/06/25 00:06:10;;;;;;;4.38;2.00;;;22.50;53.80;;;;;;5036210;28;20028;-68
2021/06/25 00:08:35;;;;;;;2.95;1.60;;;22.50;53.70;;;;;;5036312;28;20037;-68
2021/06/25 00:11:01;;;;;;;4.28;1.88;;;22.50;53.80;;;;;;5036312;28;20465;-69
2021/06/25 00:13:27;;;;;;;3.65;2.05;;;22.50;53.80;;;;;;5018485;28;20028;-68
2021/06/25 00:15:52;;;;;;;3.15;1.48;;;22.50;53.80;;;;;;5036375;28;20025;-69
2021/06/25 00:18:18;;;;;;;5.25;1.95;;;22.50;53.80;;;;;;5035894;28;20053;-68
2021/06/25 00:20:44;;;;;;;3.22;1.80;;;22.50;53.80;;;;;;5035960;28;20040;-68
2021/06/25 00:23:09;;;;;;;3.72;1.83;;;22.50;53.80;;;;;;5036027;28;20416;-69
2021/06/25 00:25:35;;;;;;;3.83;1.85;;;22.50;53.80;;;;;;5036007;28;20381;-68
2021/06/25 00:28:00;;;;;;;3.10;1.58;;;22.50;53.80;;;;;;5036204;28;20076;-68
2021/06/25 00:30:26;;;;;;;5.68;2.08;;;22.40;53.90;;;;;;5035808;28;20091;-68
2021/06/25 00:32:52;;;;;;;3.97;1.80;;;22.40;53.80;;;;;;5036129;28;20090;-69
2021/06/25 00:35:20;;;;;;;4.60;2.30;;;22.40;53.90;;;;;;5035710;28;20174;-68
2021/06/25 00:37:46;;;;;;;3.97;1.92;;;22.40;53.90;;;;;;5035770;28;20021;-68
2021/06/25 00:40:12;;;;;;;4.32;2.33;;;22.40;53.90;;;;;;5035308;28;20440;-69
2021/06/25 00:42:38;;;;;;;2.75;1.70;;;22.40;53.90;;;;;;5035616;28;20519;-68
2021/06/25 00:45:14;;;;;;;4.75;2.20;;;22.40;53.90;;;;;;5035425;28;20065;-69
2021/06/25 00:47:43;;;;;;;4.20;2.10;;;22.40;53.90;;;;;;5035789;28;20075;-68
2021/06/25 00:50:09;;;;;;;4.18;2.20;;;22.40;53.90;;;;;;5034249;28;20030;-68
2021/06/25 00:52:35;;;;;;;4.72;2.30;;;22.40;54.00;;;;;;5035266;28;20108;-68
2021/06/25 00:55:01;;;;;;;3.75;2.05;;;22.40;53.90;;;;;;5035318;28;20049;-68
2021/06/25 00:57:26;;;;;;;3.88;1.88;;;22.40;53.90;;;;;;5035276;28;20034;-69
2021/06/25 00:59:52;;;;;;;3.30;1.90;;;22.40;54.00;;;;;;5035166;28;20042;-68
2021/06/25 01:02:17;;;;;;;4.78;2.65;;;22.40;54.00;;;;;;5035425;28;20022;-68
2021/06/25 01:04:43;;;;;;;4.40;1.95;;;22.40;54.00;;;;;;5035283;28;20497;-68
2021/06/25 01:07:10;;;;;;;3.38;2.00;;;22.40;54.00;;;;;;5035019;28;20524;-68
2021/06/25 01:09:36;;;;;;;3.58;2.25;;;22.40;54.00;;;;;;5035124;28;20108;-68
2021/06/25 01:12:04;;;;;;;3.63;1.80;;;22.40;54.00;;;;;;5035274;28;20131;-69
2021/06/25 01:14:32;;;;;;;3.88;2.17;;;22.30;54.10;;;;;;5035125;28;20130;-68
2021/06/25 01:16:58;;;;;;;4.60;2.25;;;22.30;54.00;;;;;;5035147;28;20077;-68
2021/06/25 01:19:24;;;;;;;4.45;2.30;;;22.30;54.00;;;;;;5034811;28;20104;-68
2021/06/25 01:21:49;;;;;;;4.57;2.30;;;22.30;54.00;;;;;;5034871;28;20469;-68
2021/06/25 01:24:15;;;;;;;4.38;2.40;;;22.30;54.00;;;;;;5034773;28;20030;-69
2021/06/25 01:26:40;;;;;;;3.80;2.00;;;22.30;54.10;;;;;;5034989;28;20029;-68
2021/06/25 01:29:06;;;;;;;5.53;2.20;;;22.30;54.10;;;;;;5034995;28;20029;-69
2021/06/25 01:31:32;;;;;;;5.95;2.30;;;22.30;54.10;;;;;;5034983;28;20057;-68
2021/06/25 01:33:57;;;;;;;4.75;2.40;;;22.30;54.10;;;;;;5034803;28;20118;-68
2021/06/25 01:36:23;;;;;;;5.47;2.20;;;22.30;54.10;;;;;;5034775;28;20026;-68
2021/06/25 01:38:50;;;;;;;4.10;2.20;;;22.30;54.10;;;;;;5034858;28;20029;-69
2021/06/25 01:41:15;;;;;;;4.20;2.45;;;22.20;54.10;;;;;;5034695;28;20032;-69
2021/06/25 01:43:44;;;;;;;4.78;2.35;;;22.20;54.10;;;;;;5034563;28;20108;-68
2021/06/25 01:46:14;;;;;;;3.50;2.10;;;22.20;54.10;;;;;;5035071;28;20057;-68
2021/06/25 01:48:40;;;;;;;4.10;2.30;;;22.20;54.20;;;;;;5034830;28;20076;-69
2021/06/25 01:51:05;;;;;;;5.25;2.72;;;22.20;54.10;;;;;;5034912;28;20033;-69
2021/06/25 01:53:31;;;;;;;4.78;2.50;;;22.20;54.20;;;;;;5034740;28;20112;-69
2021/06/25 01:56:00;;;;;;;5.93;2.67;;;22.20;54.10;;;;;;5034432;28;20021;-69
2021/06/25 01:58:32;;;;;;;4.90;2.27;;;22.20;54.10;;;;;;5034834;28;20024;-69
2021/06/25 02:01:16;;;;;;;4.57;2.40;;;22.20;54.10;;;;;;5034936;28;20227;-68
2021/06/25 02:03:46;;;;;;;4.88;2.40;;;22.20;54.20;;;;;;5038741;28;20037;-69
2021/06/25 02:06:16;;;;;;;4.68;2.55;;;22.20;54.20;;;;;;5041567;28;20032;-68
2021/06/25 02:08:42;;;;;;;4.35;2.45;;;22.20;54.20;;;;;;5041699;28;20017;-68
2021/06/25 02:11:09;;;;;;;4.70;2.40;;;22.20;54.20;;;;;;5040631;28;20036;-68
2021/06/25 02:13:34;;;;;;;4.38;2.38;;;22.20;54.20;;;;;;5034254;28;20538;-68
2021/06/25 02:16:00;;;;;;;4.60;2.58;;;22.20;54.20;;;;;;5033850;28;20108;-68
2021/06/25 02:18:26;;;;;;;4.28;2.22;;;22.20;54.20;;;;;;5033818;28;20107;-68
2021/06/25 02:20:52;;;;;;;6.82;2.75;;;22.10;54.20;;;;;;5033828;28;20065;-68
2021/06/25 02:23:18;;;;;;;4.28;2.28;;;22.20;54.20;;;;;;5033804;28;20113;-68
2021/06/25 02:25:43;;;;;;;4.95;2.67;;;22.10;54.20;;;;;;5016113;28;20028;-68
2021/06/25 02:28:09;;;;;;;5.43;2.85;;;22.10;54.20;;;;;;5033875;28;20428;-68
2021/06/25 02:30:35;;;;;;;4.82;2.30;;;22.10;54.20;;;;;;5033806;28;20021;-68
2021/06/25 02:33:01;;;;;;;5.28;2.83;;;22.10;54.20;;;;;;5033543;28;20060;-68
2021/06/25 02:35:26;;;;;;;4.60;2.60;;;22.10;54.30;;;;;;5033605;28;20438;-68
2021/06/25 02:37:55;;;;;;;5.20;2.60;;;22.10;54.30;;;;;;5033529;28;20545;-69
2021/06/25 02:40:24;;;;;;;4.60;2.60;;;22.10;54.30;;;;;;5033502;28;20030;-68
2021/06/25 02:42:50;;;;;;;4.07;2.38;;;22.10;54.30;;;;;;5033587;28;20516;-69
2021/06/25 02:45:16;;;;;;;7.00;2.85;;;22.00;54.30;;;;;;5033299;28;20060;-69
2021/06/25 02:47:42;;;;;;;6.10;3.03;;;22.00;54.30;;;;;;5033708;28;20495;-69
2021/06/25 02:50:09;;;;;;;3.88;2.50;;;22.00;54.30;;;;;;5033504;28;20075;-68
2021/06/25 02:52:37;;;;;;;5.07;2.53;;;22.00;54.30;;;;;;5033202;28;20044;-68
2021/06/25 02:55:04;;;;;;;4.95;2.70;;;22.00;54.40;;;;;;5033449;28;20036;-69
2021/06/25 02:57:30;;;;;;;6.43;3.35;;;22.00;54.40;;;;;;5033260;28;20083;-69
2021/06/25 02:59:55;;;;;;;4.55;2.42;;;22.00;54.40;;;;;;5033298;28;20390;-68
2021/06/25 03:02:21;;;;;;;4.32;2.67;;;22.00;54.40;;;;;;5033298;28;20025;-69
2021/06/25 03:04:46;;;;;;;5.32;2.83;;;22.00;54.40;;;;;;5033263;28;20026;-70
2021/06/25 03:07:12;;;;;;;4.70;2.75;;;22.00;54.40;;;;;;5033508;28;20028;-68
2021/06/25 03:09:38;;;;;;;4.78;2.72;;;22.00;54.50;;;;;;5033415;28;20032;-68
2021/06/25 03:12:05;;;;;;;5.05;2.67;;;22.00;54.50;;;;;;5033474;28;20077;-69
2021/06/25 03:14:30;;;;;;;4.63;2.50;;;22.00;54.50;;;;;;5035345;28;20515;-68
2021/06/25 03:16:56;;;;;;;4.95;2.78;;;22.00;54.50;;;;;;5037481;28;20061;-69
2021/06/25 03:19:21;;;;;;;5.72;2.95;;;22.00;54.50;;;;;;5037328;28;20033;-69
2021/06/25 03:21:47;;;;;;;4.03;2.47;;;22.00;54.60;;;;;;5037527;28;20369;-69
2021/06/25 03:24:13;;;;;;;4.97;2.80;;;22.00;54.50;;;;;;5037285;28;20021;-69
2021/06/25 03:26:39;;;;;;;4.65;2.58;;;22.00;54.60;;;;;;5037280;28;20030;-69
2021/06/25 03:29:05;;;;;;;5.30;2.80;;;22.00;54.60;;;;;;5037321;28;20398;-68
2021/06/25 03:31:30;;;;;;;4.80;2.80;;;22.00;54.60;;;;;;5037404;28;20021;-68
2021/06/25 03:33:56;;;;;;;5.85;3.00;;;22.00;54.60;;;;;;5037093;28;20029;-69
2021/06/25 03:36:21;;;;;;;6.43;2.53;;;22.00;54.60;;;;;;5037199;28;20552;-69
2021/06/25 03:38:47;;;;;;;5.13;2.67;;;21.90;54.60;;;;;;5037017;28;20026;-68
2021/06/25 03:41:13;;;;;;;6.03;3.13;;;21.90;54.60;;;;;;5037142;28;20104;-69
2021/06/25 03:43:38;;;;;;;5.22;2.72;;;21.90;54.60;;;;;;5037484;28;20152;-68
2021/06/25 03:46:04;;;;;;;4.50;2.50;;;21.90;54.60;;;;;;5036913;28;20413;-69
2021/06/25 03:48:29;;;;;;;5.43;3.08;;;21.90;54.60;;;;;;5037162;28;20028;-69
2021/06/25 03:50:55;;;;;;;8.30;2.45;;;21.90;54.60;;;;;;5037187;28;20087;-68
2021/06/25 03:53:20;;;;;;;4.70;2.60;;;21.90;54.60;;;;;;5037231;28;20037;-69
2021/06/25 03:58:30;;;;;;;4.65;2.58;;;21.90;54.70;;;;;;5037571;28;20460;-69
2021/06/25 04:00:55;;;;;;;5.97;3.05;;;21.90;54.70;;;;;;5040921;28;20038;-69
2021/06/25 04:03:21;;;;;;;6.70;3.10;;;21.80;54.60;;;;;;5042710;28;20105;-69
2021/06/25 04:05:47;;;;;;;6.10;3.00;;;21.90;54.70;;;;;;5047764;28;20029;-72
2021/06/25 04:08:13;;;;;;;5.18;2.72;;;21.90;54.60;;;;;;5048251;28;20029;-71
2021/06/25 04:10:38;;;;;;;6.32;3.10;;;21.90;54.60;;;;;;5047603;28;20035;-69
2021/06/25 04:13:04;;;;;;;8.23;2.80;;;21.90;54.60;;;;;;5047398;28;20474;-70
2021/06/25 04:15:29;;;;;;;4.80;2.65;;;21.80;54.60;;;;;;5047110;28;20029;-70
2021/06/25 04:17:56;;;;;;;5.40;2.80;;;21.90;54.60;;;;;;5050541;28;20022;-68
2021/06/25 04:20:22;;;;;;;5.22;2.92;;;21.80;54.60;;;;;;5047416;28;20045;-68
2021/06/25 04:22:48;;;;;;;5.53;2.97;;;21.80;54.70;;;;;;5047067;28;20021;-68
2021/06/25 04:25:13;;;;;;;4.55;2.55;;;21.80;54.60;;;;;;5046359;28;20025;-70
2021/06/25 04:27:39;;;;;;;5.20;2.78;;;21.80;54.60;;;;;;5046596;28;20025;-69
2021/06/25 04:30:09;;;;;;;4.90;2.88;;;21.80;54.60;;;;;;5018740;28;20029;-68
2021/06/25 04:32:34;;;;;;;4.43;2.53;;;21.80;54.60;;;;;;5035953;28;20034;-68
2021/06/25 04:35:00;;;;;;;5.07;2.78;;;21.80;54.60;;;;;;5035829;28;20072;-69
2021/06/25 04:37:28;;;;;;;5.70;2.63;;;21.80;54.60;;;;;;5035863;28;20389;-69
2021/06/25 04:39:54;;;;;;;4.07;2.30;;;21.80;54.60;;;;;;5036014;28;20124;-68
2021/06/25 04:42:19;;;;;;;4.95;2.75;;;21.80;54.60;;;;;;5035905;28;20164;-68
2021/06/25 04:44:45;;;;;;;6.55;2.75;;;21.80;54.60;;;;;;5035517;28;20419;-68
2021/06/25 04:47:10;;;;;;;4.63;2.53;;;21.80;54.60;;;;;;5035574;28;20033;-68
2021/06/25 04:49:43;;;;;;;4.35;2.35;;;21.80;54.50;;;;;;5035619;28;20036;-69
2021/06/25 04:52:09;;;;;;;5.95;3.03;;;21.80;54.50;;;;;;5035679;28;20021;-68
2021/06/25 04:54:35;;;;;;;4.68;3.00;;;21.80;54.50;;;;;;5035874;28;20490;-68
2021/06/25 04:57:01;;;;;;;4.28;2.35;;;21.80;54.50;;;;;;5035726;28;20029;-68
2021/06/25 04:59:27;;;;;;;4.15;2.67;;;21.80;54.50;;;;;;5035024;28;20025;-68
2021/06/25 05:01:53;;;;;;;4.68;2.60;;;21.80;54.50;;;;;;5035340;28;20030;-68
2021/06/25 05:04:19;;;;;;;6.45;3.13;;;21.80;54.50;;;;;;5035319;28;20373;-68
2021/06/25 05:06:47;;;;;;;5.53;2.60;;;21.80;54.50;;;;;;5035257;28;20087;-68
2021/06/25 05:09:13;;;;;;;5.65;2.50;;;21.70;54.50;;;;;;5035133;28;20024;-68
2021/06/25 05:11:39;;;;;;;4.53;2.70;;;21.80;54.50;;;;;;5035220;28;20068;-68
2021/06/25 05:14:05;;;;;;;5.35;2.72;;;21.80;54.50;;;;;;5017521;28;20056;-68
2021/06/25 05:16:30;;;;;;;5.53;2.90;;;21.80;54.50;;;;;;5035288;28;20021;-69
2021/06/25 05:18:56;;;;;;;4.22;2.65;;;21.70;54.50;;;;;;5034907;28;20025;-68
2021/06/25 05:21:22;;;;;;;4.13;2.47;;;21.80;54.50;;;;;;5034932;28;20064;-69
2021/06/25 05:23:47;;;;;;;5.53;2.95;;;21.70;54.50;;;;;;5035120;28;20029;-69
2021/06/25 05:26:14;;;;;;;5.15;2.38;;;21.70;54.40;;;;;;5035330;28;20022;-69
2021/06/25 05:28:39;;;;;;;7.35;2.95;;;21.70;54.40;;;;;;5041084;28;20028;-69
2021/06/25 05:31:05;;;;;;;5.38;3.00;;;21.80;54.40;;;;;;5035842;28;20393;-69
2021/06/25 05:33:31;;;;;;;5.85;3.03;;;21.70;54.40;;;;;;5035534;28;20104;-68
2021/06/25 05:35:56;;;;;;;5.28;2.88;;;21.80;54.40;;;;;;5034925;28;20473;-69
2021/06/25 05:38:22;;;;;;;4.88;2.67;;;21.80;54.40;;;;;;5034282;28;20483;-68
2021/06/25 05:40:47;;;;;;;4.13;2.28;;;21.80;54.40;;;;;;5034559;28;20037;-69
2021/06/25 05:43:13;;;;;;;5.80;2.90;;;21.70;54.40;;;;;;5034631;28;20017;-68
2021/06/25 05:45:39;;;;;;;5.68;2.80;;;21.80;54.40;;;;;;5034289;28;20378;-69
2021/06/25 05:48:06;;;;;;;5.20;2.60;;;21.70;54.30;;;;;;5034259;28;20489;-68
2021/06/25 05:50:32;;;;;;;4.43;2.40;;;21.80;54.40;;;;;;5034540;28;20374;-68
2021/06/25 05:52:58;;;;;;;5.70;3.00;;;21.80;54.30;;;;;;5034187;28;20048;-68
2021/06/25 05:55:24;;;;;;;5.20;2.63;;;21.80;54.30;;;;;;5034373;28;20489;-68
2021/06/25 05:57:51;;;;;;;4.80;2.80;;;21.80;54.30;;;;;;5034361;28;20432;-68
2021/06/25 06:00:17;;;;;;;4.20;2.20;;;21.90;54.10;;;;;;5034084;28;20029;-68
2021/06/25 06:02:44;;;;;;;4.63;2.70;;;21.90;54.00;;;;;;5016650;28;20025;-68
2021/06/25 06:05:10;;;;;;;5.00;2.65;;;21.90;53.80;;;;;;5033676;28;20030;-68
2021/06/25 06:07:35;;;;;;;4.18;2.58;;;22.00;53.80;;;;;;5033662;28;20151;-68
2021/06/25 06:10:02;;;;;;;5.55;2.63;;;22.00;53.80;;;;;;5033722;28;20090;-68
2021/06/25 06:12:27;;;;;;;4.10;2.38;;;22.00;53.80;;;;;;5033499;28;20043;-68
2021/06/25 06:14:53;;;;;;;5.72;2.70;;;22.00;53.70;;;;;;5033936;28;20105;-68
2021/06/25 06:17:20;;;;;;;4.85;2.58;;;21.90;53.70;;;;;;5033615;28;20044;-68
2021/06/25 06:19:52;;;;;;;4.68;2.47;;;22.00;53.70;;;;;;5033316;28;20087;-68
2021/06/25 06:33:36;;;;;;;4.40;2.70;;;22.00;53.80;;;;;;5033312;28;20059;-68
2021/06/25 06:36:05;;;;;;;4.25;2.50;;;22.00;53.70;;;;;;5033254;28;20025;-68
2021/06/25 06:38:31;;;;;;;4.72;2.72;;;22.00;53.50;;;;;;5033229;28;20032;-67
2021/06/25 06:40:57;;;;;;;6.85;2.50;;;22.00;53.40;;;;;;5032928;28;20037;-67
2021/06/25 06:43:22;;;;;;;5.13;2.58;;;22.00;53.40;;;;;;5033010;28;20086;-67
2021/06/25 06:45:48;;;;;;;5.40;2.55;;;22.00;53.20;;;;;;5032749;28;20050;-68
2021/06/25 06:48:14;;;;;;;4.97;2.58;;;22.00;53.20;;;;;;5033258;28;20025;-68
2021/06/25 06:50:39;;;;;;;5.63;2.47;;;22.00;53.10;;;;;;5033508;28;20018;-67
2021/06/25 06:53:05;;;;;;;4.18;2.20;;;22.00;53.20;;;;;;5033348;28;20033;-67
2021/06/25 06:55:31;;;;;;;4.63;2.58;;;22.00;53.20;;;;;;5033315;28;20022;-67
2021/06/25 06:57:56;;;;;;;4.88;2.42;;;22.00;53.10;;;;;;5037195;28;20025;-67
2021/06/25 07:00:22;;;;;;;4.68;2.30;;;22.00;53.10;;;;;;5038428;28;20104;-68
2021/06/25 07:02:48;;;;;;;4.75;2.63;;;22.00;53.10;;;;;;5038655;28;20077;-68
2021/06/25 07:05:15;;;;;;;4.95;2.55;;;22.10;53.10;;;;;;5038989;28;20025;-67
2021/06/25 07:07:42;;;;;;;4.75;2.50;;;22.00;53.00;;;;;;5033719;28;20109;-68
2021/06/25 07:10:09;;;;;;;6.57;2.80;;;22.10;53.00;;;;;;5032923;28;20481;-68
2021/06/25 07:12:36;;;;;;;4.13;2.33;;;22.10;52.80;;;;;;5032916;28;20519;-67
2021/06/25 07:15:06;;;;;;;4.47;2.53;;;22.10;52.90;;;;;;5032757;28;20025;-68
2021/06/25 07:17:32;;;;;;;4.85;2.47;;;22.10;52.80;;;;;;5033131;28;20024;-68
2021/06/25 07:19:58;;;;;;;5.00;2.60;;;22.20;52.80;;;;;;5032930;28;20164;-69
2021/06/25 07:22:25;;;;;;;4.40;2.47;;;22.20;52.70;;;;;;5032966;28;20060;-68
2021/06/25 07:24:51;;;;;;;6.75;2.58;;;22.20;52.60;;;;;;5032951;28;20074;-68
2021/06/25 07:27:17;;;;;;;4.50;2.28;;;22.20;52.60;;;;;;5032730;28;20033;-68
2021/06/25 07:29:43;;;;;;;4.55;2.38;;;22.20;52.60;;;;;;5014886;28;20052;-68
2021/06/25 07:32:09;;;;;;;4.78;2.33;;;22.20;52.40;;;;;;5014795;28;20481;-69
2021/06/25 07:34:34;;;;;;;3.97;2.20;;;22.20;52.50;;;;;;5032507;28;20044;-68
2021/06/25 07:37:00;;;;;;;5.57;2.45;;;22.20;52.70;;;;;;5032402;28;20022;-68
2021/06/25 07:39:26;;;;;;;5.03;2.55;;;22.30;52.50;;;;;;5032234;28;20436;-68
2021/06/25 07:41:51;;;;;;;3.35;2.13;;;22.20;52.60;;;;;;5014782;28;20469;-67
2021/06/25 07:44:17;;;;;;;4.50;2.47;;;22.20;52.60;;;;;;5014876;28;20071;-67
2021/06/25 07:46:42;;;;;;;3.88;2.10;;;22.30;52.60;;;;;;5032407;28;20033;-68
2021/06/25 07:49:08;;;;;;;4.80;2.45;;;22.20;52.60;;;;;;5032666;28;20465;-68
2021/06/25 07:51:34;;;;;;;4.03;2.05;;;22.20;52.70;;;;;;5014950;28;20538;-68
2021/06/25 07:53:59;;;;;;;4.32;2.17;;;22.20;52.60;;;;;;5032466;28;20040;-68
2021/06/25 07:56:25;;;;;;;5.90;2.42;;;22.30;52.70;;;;;;5032669;28;20032;-67
2021/06/25 07:58:50;;;;;;;5.22;2.10;;;22.30;52.70;;;;;;5032319;28;20041;-68
2021/06/25 08:01:16;;;;;;;3.97;2.25;;;22.20;52.60;;;;;;5035748;28;20469;-68
2021/06/25 08:03:41;;;;;;;4.25;2.30;;;22.20;52.70;;;;;;5036128;28;20068;-68
2021/06/25 08:06:10;;;;;;;3.55;1.98;;;22.30;52.70;;;;;;5036288;28;20061;-68
2021/06/25 08:08:35;;;;;;;4.20;2.22;;;22.30;52.70;;;;;;5035954;28;20036;-68
2021/06/25 08:11:01;;;;;;;4.25;2.25;;;22.30;52.60;;;;;;5017968;28;20029;-68
2021/06/25 08:13:26;;;;;;;4.32;2.47;;;22.30;52.70;;;;;;5036173;28;20034;-67
2021/06/25 08:15:52;;;;;;;5.88;2.45;;;22.30;52.70;;;;;;5036073;28;20025;-67
2021/06/25 08:18:18;;;;;;;4.07;2.22;;;22.30;52.60;;;;;;5035861;28;20040;-68
2021/06/25 08:20:45;;;;;;;4.25;2.22;;;22.30;52.70;;;;;;5035847;28;20072;-68
2021/06/25 08:23:11;;;;;;;4.45;2.40;;;22.30;52.60;;;;;;5035779;28;20428;-68
2021/06/25 08:25:37;;;;;;;3.20;2.13;;;22.40;52.60;;;;;;5035184;28;20029;-67
2021/06/25 08:28:03;;;;;;;4.43;2.38;;;22.30;52.60;;;;;;5035279;28;20362;-69
2021/06/25 08:30:29;;;;;;;4.53;2.20;;;22.30;52.60;;;;;;5035545;28;20040;-69
2021/06/25 08:32:55;;;;;;;4.20;2.33;;;22.30;52.60;;;;;;5035612;28;20025;-68
2021/06/25 08:35:24;;;;;;;5.35;2.85;;;22.40;52.60;;;;;;5035674;28;20073;-67
2021/06/25 08:37:51;;;;;;;4.15;2.45;;;22.40;52.50;;;;;;5035476;28;20025;-68
2021/06/25 08:40:17;;;;;;;3.97;2.50;;;22.40;52.50;;;;;;5035255;28;20119;-68
2021/06/25 08:42:43;;;;;;;4.13;2.22;;;22.40;52.50;;;;;;5017768;28;20025;-67
2021/06/25 08:45:11;;;;;;;4.28;2.30;;;22.40;52.50;;;;;;5035183;28;20045;-67
2021/06/25 08:47:42;;;;;;;6.45;2.55;;;22.40;52.50;;;;;;5035183;28;20057;-68
2021/06/25 08:50:10;;;;;;;4.45;2.28;;;22.40;52.50;;;;;;5035130;28;20037;-68
2021/06/25 08:52:36;;;;;;;4.22;2.35;;;22.40;52.50;;;;;;5035148;28;20100;-68
2021/06/25 08:55:02;;;;;;;4.13;2.10;;;22.40;52.40;;;;;;5035187;28;20069;-67
2021/06/25 08:57:33;;;;;;;6.00;2.42;;;22.40;52.50;;;;;;5037048;28;20087;-67
2021/06/25 08:59:58;;;;;;;4.20;2.05;;;22.40;52.40;;;;;;5038635;28;20042;-68
2021/06/25 09:02:30;;;;;;;4.35;2.03;;;22.40;52.40;;;;;;5036147;28;20079;-68
2021/06/25 09:04:55;;;;;;;3.78;2.22;;;22.40;52.40;;;;;;5035498;28;20021;-67
2021/06/25 09:07:38;;;;;;;4.07;2.35;;;22.50;52.40;;;;;;5035118;28;20060;-67
2021/06/25 09:10:04;;;;;;;4.88;2.17;;;22.40;52.50;;;;;;5035403;28;20021;-67
2021/06/25 09:12:30;;;;;;;4.45;2.30;;;22.50;52.40;;;;;;5033905;28;20080;-68
2021/06/25 09:15:11;;;;;;;4.82;2.42;;;22.50;52.40;;;;;;5035185;28;20030;-67
2021/06/25 09:17:56;;;;;;;3.97;2.08;;;22.50;52.30;;;;;;5035050;28;20076;-68
2021/06/25 09:20:50;;;;;;;4.65;2.20;;;22.50;52.30;;;;;;5017081;28;20034;-67
2021/06/25 09:23:39;;;;;;;4.10;2.42;;;22.50;52.30;;;;;;5034815;28;20025;-68
2021/06/25 09:26:09;;;;;;;4.05;2.42;;;22.50;52.30;;;;;;5034341;28;20484;-67
2021/06/25 09:28:39;;;;;;;3.28;1.70;;;22.50;52.30;;;;;;5034625;28;20025;-67
2021/06/25 09:31:26;;;;;;;4.57;2.50;;;22.50;52.30;;;;;;5034779;28;20037;-68
2021/06/25 09:33:55;;;;;;;4.97;2.38;;;22.50;52.30;;;;;;5034703;28;20036;-68
2021/06/25 09:36:23;;;;;;;4.35;2.28;;;22.50;52.30;;;;;;5034420;28;20025;-68
2021/06/25 09:39:16;;;;;;;4.40;2.03;;;22.50;52.30;;;;;;5016647;28;20028;-68
2021/06/25 09:41:46;;;;;;;5.13;2.53;;;22.50;52.20;;;;;;5034490;28;20025;-69
2021/06/25 09:44:19;;;;;;;4.35;2.38;;;22.60;52.30;;;;;;5034736;28;20064;-68
2021/06/25 09:46:48;;;;;;;4.00;1.90;;;22.50;52.30;;;;;;5034387;28;20144;-68
2021/06/25 09:49:44;;;;;;;4.70;2.15;;;22.50;52.30;;;;;;5034742;28;20480;-68
2021/06/25 09:52:10;;;;;;;4.75;2.20;;;22.50;52.30;;;;;;5021236;28;20065;-68
2021/06/25 09:54:35;;;;;;;4.13;2.08;;;22.50;52.20;;;;;;5034439;28;20115;-67
2021/06/25 09:57:12;;;;;;;4.65;2.40;;;22.60;52.20;;;;;;5038509;28;20032;-68
2021/06/25 10:02:30;;;;;;;4.13;2.25;;;22.60;52.20;;;;;;5035478;28;20108;-68
2021/06/25 10:05:10;;;;;;;4.90;2.60;;;22.60;52.20;;;;;;5035241;28;20033;-68
2021/06/25 10:07:36;;;;;;;4.72;2.17;;;22.60;52.20;;;;;;5034961;28;20022;-69
2021/06/25 10:10:07;;;;;;;3.88;2.10;;;22.60;52.20;;;;;;5034899;28;20068;-68
2021/06/25 10:12:37;;;;;;;4.07;2.08;;;22.60;52.20;;;;;;5034981;28;20405;-68
2021/06/25 10:15:04;;;;;;;4.50;2.60;;;22.60;52.20;;;;;;5034726;28;20026;-67
2021/06/25 10:17:30;;;;;;;3.85;2.10;;;22.60;52.20;;;;;;5016719;28;20025;-68
2021/06/25 10:20:03;;;;;;;4.93;2.75;;;22.60;52.30;;;;;;5033853;28;20033;-68
2021/06/25 10:22:29;;;;;;;4.68;2.50;;;22.50;52.30;;;;;;5033146;28;20018;-68
2021/06/25 10:24:56;;;;;;;4.30;2.45;;;22.50;52.30;;;;;;5034078;28;20436;-68
2021/06/25 10:27:22;;;;;;;3.85;2.17;;;22.60;52.30;;;;;;5043962;28;20013;-68
2021/06/25 10:29:50;;;;;;;4.70;2.58;;;22.60;52.30;;;;;;5039227;28;20493;-68
2021/06/25 10:32:17;;;;;;;4.85;2.35;;;22.60;52.30;;;;;;5034040;28;20107;-68
2021/06/25 10:34:44;;;;;;;6.53;2.58;;;22.60;52.30;;;;;;5033557;28;20504;-68
2021/06/25 10:37:13;;;;;;;3.75;2.25;;;22.70;52.20;;;;;;5034335;28;20039;-68
2021/06/25 10:39:39;;;;;;;4.80;2.20;;;22.70;52.20;;;;;;5033775;28;20125;-68
2021/06/25 10:42:09;;;;;;;4.72;2.38;;;22.70;52.10;;;;;;5033252;28;20060;-68
2021/06/25 10:44:53;;;;;;;5.03;2.55;;;22.80;52.10;;;;;;5034020;28;20054;-68
2021/06/25 10:47:29;;;;;;;3.72;2.00;;;22.70;52.10;;;;;;5033770;28;20052;-68
2021/06/25 10:49:58;;;;;;;4.45;2.13;;;22.80;52.10;;;;;;5034117;28;20507;-68
2021/06/25 10:52:28;;;;;;;4.45;2.42;;;22.70;52.10;;;;;;5034283;28;20026;-68
2021/06/25 10:55:10;;;;;;;4.28;2.38;;;22.70;52.10;;;;;;5033364;28;20025;-68
2021/06/25 10:57:55;;;;;;;4.63;2.40;;;22.70;52.10;;;;;;5033661;28;20048;-68
2021/06/25 11:00:28;;;;;;;4.15;2.40;;;22.70;52.10;;;;;;5032561;28;20493;-67
2021/06/25 11:02:54;;;;;;;5.07;2.50;;;22.70;52.20;;;;;;5033179;28;20017;-68
2021/06/25 11:05:25;;;;;;;4.97;2.55;;;22.70;52.10;;;;;;5033181;28;20508;-68
2021/06/25 11:07:53;;;;;;;4.63;2.78;;;22.80;52.10;;;;;;5015479;28;20048;-68
2021/06/25 11:10:26;;;;;;;3.47;2.08;;;22.80;52.10;;;;;;5015341;28;20033;-68
2021/06/25 11:13:14;;;;;;;3.90;2.33;;;22.80;52.10;;;;;;5033405;28;20039;-67
2021/06/25 11:15:40;;;;;;;4.55;2.38;;;22.80;52.00;;;;;;5034173;28;20064;-67
2021/06/25 11:18:17;;;;;;;4.97;2.67;;;22.80;52.00;;;;;;5034286;28;20030;-68
2021/06/25 11:21:09;;;;;;;4.72;2.60;;;22.90;52.00;;;;;;5033200;28;20044;-67
2021/06/25 11:23:38;;;;;;;5.50;2.75;;;22.90;51.90;;;;;;5033122;28;20034;-67
2021/06/25 11:26:20;;;;;;;4.57;2.33;;;22.90;51.90;;;;;;5032779;28;20525;-68
2021/06/25 11:28:54;;;;;;;4.07;2.70;;;22.90;51.90;;;;;;5032681;28;20080;-68
2021/06/25 11:31:25;;;;;;;4.55;2.38;;;22.90;51.90;;;;;;5033079;28;20173;-67
2021/06/25 11:33:56;;;;;;;4.07;2.33;;;22.90;51.80;;;;;;5033103;28;20060;-67
2021/06/25 11:36:27;;;;;;;4.65;2.60;;;23.00;51.80;;;;;;5036541;28;20027;-68
2021/06/25 11:39:00;;;;;;;3.40;2.00;;;23.00;51.80;;;;;;5037292;28;20033;-68
2021/06/25 11:41:29;;;;;;;4.22;2.50;;;23.00;51.80;;;;;;5037203;28;20026;-68
2021/06/25 11:43:57;;;;;;;4.40;2.35;;;23.00;51.80;;;;;;5036700;28;20432;-68
2021/06/25 11:46:23;;;;;;;3.33;2.05;;;23.00;51.80;;;;;;5036494;28;20108;-67
2021/06/25 11:48:50;;;;;;;4.72;2.47;;;23.00;51.70;;;;;;5039885;28;20025;-68
2021/06/25 11:51:18;;;;;;;3.80;2.30;;;23.00;51.70;;;;;;5043816;28;20044;-68
2021/06/25 11:53:45;;;;;;;3.78;2.17;;;23.00;51.70;;;;;;5043968;28;20029;-68
2021/06/25 11:56:21;;;;;;;5.60;2.80;;;23.10;51.70;;;;;;5043549;28;20034;-69
2021/06/25 11:58:55;;;;;;;4.13;2.20;;;23.10;51.60;;;;;;5037151;28;20037;-67
2021/06/25 12:01:20;;;;;;;3.40;2.08;;;23.20;51.50;;;;;;5036651;28;20439;-68
2021/06/25 12:03:46;;;;;;;4.15;2.30;;;23.20;51.40;;;;;;5018797;28;20517;-68
2021/06/25 12:06:12;;;;;;;3.55;1.80;;;23.20;51.40;;;;;;5036618;28;20030;-68
2021/06/25 12:09:10;;;;;;;3.60;2.13;;;23.20;51.40;;;;;;5037183;28;20021;-67
2021/06/25 12:11:36;;;;;;;4.05;2.33;;;23.20;51.40;;;;;;5003163;28;20597;-67
2021/06/25 12:14:10;;;;;;;4.60;2.60;;;23.20;51.40;;;;;;5018184;28;20033;-67
2021/06/25 12:16:40;;;;;;;4.78;2.22;;;23.20;51.50;;;;;;5036508;28;20053;-68
2021/06/25 12:19:12;;;;;;;3.22;1.77;;;23.20;51.50;;;;;;5035814;28;20037;-67
2021/06/25 12:21:38;;;;;;;3.78;2.33;;;23.20;51.50;;;;;;5035990;28;20036;-67
2021/06/25 12:24:05;;;;;;;3.03;1.95;;;23.20;51.50;;;;;;5035916;28;20021;-67
2021/06/25 12:26:31;;;;;;;4.22;2.20;;;23.20;51.50;;;;;;5036022;28;20029;-68
2021/06/25 12:28:59;;;;;;;4.85;2.50;;;23.20;51.60;;;;;;5035928;28;20032;-67
2021/06/25 12:31:30;;;;;;;5.22;2.80;;;23.20;51.60;;;;;;5035592;28;20444;-67
2021/06/25 12:34:22;;;;;;;5.07;2.78;;;23.20;51.60;;;;;;5035967;28;20018;-68
2021/06/25 12:37:07;;;;;;;4.43;2.00;;;23.10;51.70;;;;;;5033024;28;20109;-68
2021/06/25 12:39:33;;;;;;;4.60;2.42;;;23.10;51.70;;;;;;5035546;28;20045;-69
2021/06/25 12:42:01;;;;;;;3.63;2.10;;;23.20;51.70;;;;;;5035908;28;20022;-68
2021/06/25 12:44:26;;;;;;;5.93;2.88;;;23.20;51.70;;;;;;5035820;28;20029;-68
2021/06/25 12:47:05;;;;;;;4.47;2.75;;;23.10;51.70;;;;;;5035423;28;20138;-68
2021/06/25 12:49:33;;;;;;;3.70;2.20;;;23.10;51.70;;;;;;5035936;28;20117;-68
2021/06/25 12:51:59;;;;;;;3.40;2.00;;;23.20;51.80;;;;;;5035768;28;20083;-68
2021/06/25 12:54:31;;;;;;;4.93;2.80;;;23.10;51.70;;;;;;5035552;28;20473;-68
2021/06/25 12:56:57;;;;;;;4.35;2.33;;;23.10;51.70;;;;;;5035979;28;20025;-68
2021/06/25 12:59:24;;;;;;;2.70;1.73;;;23.10;51.70;;;;;;5035984;28;20108;-68
2021/06/25 13:01:56;;;;;;;3.78;2.15;;;23.10;51.70;;;;;;5035685;28;20481;-68
2021/06/25 13:04:32;;;;;;;4.05;2.10;;;23.10;51.70;;;;;;5038636;28;20030;-69
2021/06/25 13:06:59;;;;;;;3.92;2.20;;;23.20;51.70;;;;;;5046886;28;20056;-69
2021/06/25 13:09:36;;;;;;;5.15;2.58;;;23.10;51.80;;;;;;5046268;28;20022;-69